createdAt,value
2022-09-18T00:01:36.777Z,102308.25
2022-09-18T00:04:06.923Z,102310.09
2022-09-18T00:06:38.443Z,102306.31
2022-09-18T00:09:08.348Z,102310.78
2022-09-18T00:11:37.992Z,102310.63
2022-09-18T00:14:07.064Z,102308.16
2022-09-18T00:16:35.298Z,102303.69
2022-09-18T00:19:04.014Z,102299.50
2022-09-18T00:21:33.025Z,102296.72
2022-09-18T00:24:03.097Z,102295.03
2022-09-18T00:26:31.867Z,102302.97
2022-09-18T00:29:00.177Z,102299.50
2022-09-18T00:31:30.967Z,102302.03
2022-09-18T00:34:00.057Z,102292.53
2022-09-18T00:36:29.531Z,102301.19
2022-09-18T00:38:59.359Z,102299.22
2022-09-18T00:41:31.745Z,102292.09
2022-09-18T00:44:47.780Z,102292.81
2022-09-18T00:47:26.667Z,102290.28
2022-09-18T00:50:06.537Z,102289.19
2022-09-18T00:52:41.987Z,102291.69
2022-09-18T00:55:11.596Z,102279.97
2022-09-18T00:57:44.668Z,102276.34
2022-09-18T01:00:14.729Z,102283.28
2022-09-18T01:02:44.593Z,102281.34
2022-09-18T01:05:14.729Z,102285.78
2022-09-18T01:07:56.705Z,102279.66
2022-09-18T01:10:36.237Z,102287.47
2022-09-18T01:13:15.152Z,102278.72
2022-09-18T01:15:50.984Z,102279.38
2022-09-18T01:18:27.527Z,102281.34
2022-09-18T01:21:03.692Z,102279.81
2022-09-18T01:23:55.212Z,102279.81
2022-09-18T01:26:37.777Z,102273.00
2022-09-18T01:29:14.116Z,102275.63
2022-09-18T01:31:48.217Z,102279.16
2022-09-18T01:34:23.553Z,102276.78
2022-09-18T01:36:56.620Z,102276.22
2022-09-18T01:39:30.650Z,102274.56
2022-09-18T01:42:02.171Z,102272.75
2022-09-18T01:44:34.849Z,102261.50
2022-09-18T01:47:07.846Z,102258.00
2022-09-18T01:49:42.757Z,102251.03
2022-09-18T01:52:16.318Z,102258.97
2022-09-18T01:54:49.135Z,102250.22
2022-09-18T01:57:22.581Z,102254.66
2022-09-18T01:59:58.657Z,102247.03
2022-09-18T02:02:32.550Z,102241.88
2022-09-18T02:05:03.851Z,102250.53
2022-09-18T02:07:41.227Z,102245.91
2022-09-18T02:10:09.899Z,102246.06
2022-09-18T02:12:42.257Z,102245.06
2022-09-18T02:15:15.333Z,102241.59
2022-09-18T02:17:50.404Z,102244.25
2022-09-18T02:20:22.906Z,102241.06
2022-09-18T02:22:53.742Z,102243.53
2022-09-18T02:25:27.230Z,102239.41
2022-09-18T02:27:57.372Z,102240.06
2022-09-18T02:30:28.360Z,102236.03
2022-09-18T02:32:58.965Z,102238.69
2022-09-18T02:35:35.493Z,102228.94
2022-09-18T02:38:12.460Z,102225.78
2022-09-18T02:40:51.471Z,102227.44
2022-09-18T02:43:32.497Z,102228.25
2022-09-18T02:46:14.060Z,102226.88
2022-09-18T02:48:55.371Z,102227.72
2022-09-18T02:51:32.771Z,102217.97
2022-09-18T02:54:07.684Z,102217.97
2022-09-18T02:56:40.646Z,102214.66
2022-09-18T02:59:13.804Z,102213.81
2022-09-18T03:01:45.779Z,102208.66
2022-09-18T03:04:16.410Z,102215.47
2022-09-18T03:06:44.424Z,102212.84
2022-09-18T03:09:12.719Z,102208.53
2022-09-18T03:11:40.878Z,102201.41
2022-09-18T03:14:09.114Z,102201.69
2022-09-18T03:16:37.291Z,102202.53
2022-09-18T03:19:07.395Z,102206.88
2022-09-18T03:21:35.692Z,102199.88
2022-09-18T03:24:03.929Z,102197.25
2022-09-18T03:26:32.035Z,102197.25
2022-09-18T03:29:00.427Z,102206.00
2022-09-18T03:31:29.634Z,102203.22
2022-09-18T03:33:57.851Z,102199.88
2022-09-18T03:36:27.447Z,102202.69
2022-09-18T03:38:55.599Z,102192.66
2022-09-18T03:41:24.216Z,102193.91
2022-09-18T03:43:52.796Z,102190.56
2022-09-18T03:46:23.645Z,102197.41
2022-09-18T03:48:52.564Z,102195.03
2022-09-18T03:51:21.578Z,102188.78
2022-09-18T03:53:52.096Z,102186.00
2022-09-18T03:56:20.374Z,102185.00
2022-09-18T03:58:48.517Z,102191.81
2022-09-18T04:01:16.694Z,102183.34
2022-09-18T04:03:44.936Z,102192.78
2022-09-18T04:06:13.054Z,102191.13
2022-09-18T04:08:41.145Z,102195.75
2022-09-18T04:11:10.646Z,102190.44
2022-09-18T04:13:38.941Z,102186.00
2022-09-18T04:16:07.484Z,102187.81
2022-09-18T04:18:35.696Z,102188.63
2022-09-18T04:21:03.837Z,102189.75
2022-09-18T04:23:31.952Z,102189.75
2022-09-18T04:26:08.424Z,102183.78
2022-09-18T04:28:38.428Z,102183.09
2022-09-18T04:31:06.944Z,102184.22
2022-09-18T04:33:35.141Z,102173.91
2022-09-18T04:36:03.709Z,102180.47
2022-09-18T04:38:31.908Z,102183.81
2022-09-18T04:41:01.131Z,102186.75
2022-09-18T04:43:29.981Z,102189.41
2022-09-18T04:45:59.516Z,102193.56
2022-09-18T04:48:27.794Z,102190.22
2022-09-18T04:50:56.502Z,102191.38
2022-09-18T04:53:24.684Z,102190.66
2022-09-18T04:55:52.823Z,102197.53
2022-09-18T04:58:21.145Z,102197.81
2022-09-18T05:00:50.853Z,102198.34
2022-09-18T05:03:22.753Z,102193.06
2022-09-18T05:05:50.931Z,102201.97
2022-09-18T05:08:19.289Z,102200.84
2022-09-18T05:10:47.443Z,102197.53
2022-09-18T05:13:15.664Z,102189.75
2022-09-18T05:15:43.810Z,102191.41
2022-09-18T05:18:13.627Z,102197.53
2022-09-18T05:20:43.194Z,102194.72
2022-09-18T05:23:11.313Z,102199.03
2022-09-18T05:25:39.562Z,102183.47
2022-09-18T05:28:07.758Z,102186.13
2022-09-18T05:30:35.843Z,102185.00
2022-09-18T05:33:07.041Z,102182.25
2022-09-18T05:35:36.732Z,102187.81
2022-09-18T05:38:07.163Z,102179.88
2022-09-18T05:40:36.885Z,102178.75
2022-09-18T05:43:05.109Z,102183.91
2022-09-18T05:45:33.922Z,102188.50
2022-09-18T05:48:03.765Z,102179.19
2022-09-18T05:50:32.546Z,102185.75
2022-09-18T05:53:02.782Z,102185.03
2022-09-18T05:55:33.425Z,102181.72
2022-09-18T05:58:03.304Z,102183.25
2022-09-18T06:00:33.216Z,102183.25
2022-09-18T06:03:03.434Z,102172.28
2022-09-18T06:05:33.080Z,102175.91
2022-09-18T06:08:02.112Z,102185.94
2022-09-18T06:10:31.184Z,102184.41
2022-09-18T06:13:05.003Z,102193.44
2022-09-18T06:15:33.854Z,102179.00
2022-09-18T06:18:02.153Z,102186.38
2022-09-18T06:20:30.360Z,102192.78
2022-09-18T06:23:01.326Z,102190.41
2022-09-18T06:25:30.145Z,102192.38
2022-09-18T06:28:00.319Z,102189.31
2022-09-18T06:30:32.003Z,102180.00
2022-09-18T06:33:02.317Z,102187.03
2022-09-18T06:35:31.241Z,102186.38
2022-09-18T06:38:03.246Z,102189.84
2022-09-18T06:40:31.463Z,102196.09
2022-09-18T06:43:01.822Z,102193.31
2022-09-18T06:45:32.531Z,102190.66
2022-09-18T06:48:03.922Z,102198.88
2022-09-18T06:50:32.246Z,102196.38
2022-09-18T06:53:05.148Z,102198.03
2022-09-18T06:55:35.873Z,102198.88
2022-09-18T06:58:04.571Z,102202.63
2022-09-18T07:00:34.357Z,102202.06
2022-09-18T07:03:04.523Z,102208.19
2022-09-18T07:05:33.991Z,102202.78
2022-09-18T07:08:02.463Z,102206.09
2022-09-18T07:10:30.563Z,102212.38
2022-09-18T07:12:59.200Z,102208.06
2022-09-18T07:15:28.275Z,102211.66
2022-09-18T07:17:59.219Z,102212.63
2022-09-18T07:20:27.766Z,102216.81
2022-09-18T07:22:57.437Z,102211.53
2022-09-18T07:25:26.369Z,102214.03
2022-09-18T07:27:55.136Z,102214.59
2022-09-18T07:30:23.328Z,102218.75
2022-09-18T07:32:51.479Z,102218.88
2022-09-18T07:35:20.961Z,102215.16
2022-09-18T07:37:49.897Z,102212.94
2022-09-18T07:40:18.236Z,102212.94
2022-09-18T07:42:46.415Z,102209.19
2022-09-18T07:45:14.636Z,102217.66
2022-09-18T07:47:42.850Z,102209.47
2022-09-18T07:50:15.934Z,102214.59
2022-09-18T07:52:53.244Z,102214.03
2022-09-18T07:55:22.257Z,102212.50
2022-09-18T07:57:55.631Z,102217.06
2022-09-18T08:00:23.641Z,102217.63
2022-09-18T08:02:52.613Z,102205.63
2022-09-18T08:05:20.872Z,102203.28
2022-09-18T08:07:48.895Z,102210.91
2022-09-18T08:10:18.651Z,102211.00
2022-09-18T08:12:46.721Z,102205.84
2022-09-18T08:15:15.168Z,102204.16
2022-09-18T08:17:46.626Z,102207.75
2022-09-18T08:20:15.133Z,102201.84
2022-09-18T08:22:43.961Z,102208.22
2022-09-18T08:25:12.317Z,102204.31
2022-09-18T08:27:43.018Z,102201.91
2022-09-18T08:30:13.605Z,102204.78
2022-09-18T08:32:42.071Z,102202.84
2022-09-18T08:35:11.688Z,102204.19
2022-09-18T08:37:39.853Z,102201.97
2022-09-18T08:40:09.176Z,102196.66
2022-09-18T08:42:47.880Z,102206.66
2022-09-18T08:45:36.529Z,102205.25
2022-09-18T08:48:11.844Z,102206.06
2022-09-18T08:50:44.189Z,102210.25
2022-09-18T08:53:19.101Z,102210.31
2022-09-18T08:55:49.964Z,102212.66
2022-09-18T08:58:24.131Z,102214.88
2022-09-18T09:00:56.053Z,102218.06
2022-09-18T09:03:30.262Z,102216.31
2022-09-18T09:06:01.648Z,102226.16
2022-09-18T09:08:44.700Z,102218.56
2022-09-18T09:11:19.194Z,102224.13
2022-09-18T09:14:16.376Z,102230.31
2022-09-18T09:16:45.847Z,102236.50
2022-09-18T09:19:28.353Z,102225.97
2022-09-18T09:22:05.735Z,102243.44
2022-09-18T09:24:35.798Z,102243.97
2022-09-18T09:27:15.472Z,102243.50
2022-09-18T09:29:47.488Z,102251.06
2022-09-18T09:32:25.971Z,102251.94
2022-09-18T09:35:00.315Z,102246.72
2022-09-18T09:37:37.899Z,102255.06
2022-09-18T09:40:13.373Z,102252.75
2022-09-18T09:42:46.940Z,102256.59
2022-09-18T09:45:25.068Z,102258.63
2022-09-18T09:48:01.800Z,102257.97
2022-09-18T09:50:46.248Z,102256.84
2022-09-18T09:53:14.706Z,102263.53
2022-09-18T09:55:52.078Z,102255.94
2022-09-18T09:58:31.636Z,102251.97
2022-09-18T10:01:08.316Z,102271.13
2022-09-18T10:03:46.814Z,102265.66
2022-09-18T10:06:29.164Z,102276.47
2022-09-18T10:09:04.231Z,102279.66
2022-09-18T10:11:37.161Z,102279.19
2022-09-18T10:14:12.243Z,102282.56
2022-09-18T10:16:48.655Z,102290.53
2022-09-18T10:19:20.568Z,102284.25
2022-09-18T10:21:50.741Z,102281.94
2022-09-18T10:24:27.216Z,102288.06
2022-09-18T10:26:59.070Z,102292.88
2022-09-18T10:29:27.239Z,102300.19
2022-09-18T10:31:58.442Z,102310.53
2022-09-18T10:34:35.250Z,102314.16
2022-09-18T10:37:03.617Z,102320.13
2022-09-18T10:39:34.259Z,102312.63
2022-09-18T10:42:04.548Z,102315.13
2022-09-18T10:44:36.987Z,102327.88
2022-09-18T10:47:09.470Z,102327.34
2022-09-18T10:49:42.075Z,102335.78
2022-09-18T10:52:23.313Z,102330.94
2022-09-18T10:55:03.326Z,102334.56
2022-09-18T10:57:34.525Z,102326.91
2022-09-18T11:00:05.285Z,102339.16
2022-09-18T11:02:41.070Z,102335.09
2022-09-18T11:05:18.125Z,102346.72
2022-09-18T11:07:50.315Z,102349.72
2022-09-18T11:10:19.961Z,102348.19
2022-09-18T11:12:54.889Z,102354.00
2022-09-18T11:15:26.911Z,102359.34
2022-09-18T11:17:59.128Z,102364.78
2022-09-18T11:20:29.168Z,102371.78
2022-09-18T11:23:16.086Z,102373.56
2022-09-18T11:25:45.880Z,102375.16
2022-09-18T11:28:24.279Z,102381.72
2022-09-18T11:31:01.648Z,102378.66
2022-09-18T11:33:34.762Z,102379.97
2022-09-18T11:36:06.871Z,102385.13
2022-09-18T11:38:41.695Z,102384.22
2022-09-18T11:41:11.538Z,102387.53
2022-09-18T11:43:42.182Z,102384.63
2022-09-18T11:46:25.905Z,102384.38
2022-09-18T11:49:04.703Z,102384.13
2022-09-18T11:51:40.659Z,102390.22
2022-09-18T11:54:13.165Z,102390.63
2022-09-18T11:56:47.859Z,102395.69
2022-09-18T11:59:37.889Z,102394.88
2022-09-18T12:02:15.884Z,102395.41
2022-09-18T12:04:53.124Z,102390.63
2022-09-18T12:07:38.573Z,102395.22
2022-09-18T12:10:16.601Z,102399.72
2022-09-18T12:12:49.247Z,102390.31
2022-09-18T12:15:21.454Z,102390.50
2022-09-18T12:17:55.462Z,102389.31
2022-09-18T12:20:28.590Z,102390.69
2022-09-18T12:22:58.902Z,102392.16
2022-09-18T12:25:37.792Z,102393.91
2022-09-18T12:28:23.263Z,102394.56
2022-09-18T12:31:00.407Z,102397.34
2022-09-18T12:33:40.711Z,102401.66
2022-09-18T12:36:41.350Z,102385.38
2022-09-18T12:39:28.754Z,102393.38
2022-09-18T12:42:10.776Z,102392.09
2022-09-18T12:45:02.891Z,102389.78
2022-09-18T12:47:57.948Z,102384.78
2022-09-18T12:50:46.172Z,102383.88
2022-09-18T12:53:36.481Z,102383.69
2022-09-18T12:56:20.488Z,102388.03
2022-09-18T12:59:09.412Z,102377.06
2022-09-18T13:01:45.297Z,102373.00
2022-09-18T13:04:21.957Z,102379.72
2022-09-18T13:06:56.119Z,102374.53
2022-09-18T13:09:29.447Z,102377.97
2022-09-18T13:12:03.373Z,102377.81
2022-09-18T13:14:40.001Z,102368.25
2022-09-18T13:17:15.078Z,102371.38
2022-09-18T13:19:53.115Z,102378.00
2022-09-18T13:22:23.094Z,102375.09
2022-09-18T13:24:54.377Z,102370.97
2022-09-18T13:27:26.204Z,102367.78
2022-09-18T13:29:59.220Z,102370.72
2022-09-18T13:32:40.501Z,102377.50
2022-09-18T13:35:20.761Z,102370.00
2022-09-18T13:37:50.510Z,102374.84
2022-09-18T13:40:35.993Z,102369.28
2022-09-18T13:43:24.410Z,102378.75
2022-09-18T13:45:53.198Z,102370.63
2022-09-18T13:48:24.675Z,102368.97
2022-09-18T13:50:54.673Z,102362.47
2022-09-18T13:53:34.667Z,102364.63
2022-09-18T13:56:03.713Z,102366.28
2022-09-18T13:58:52.335Z,102356.81
2022-09-18T14:02:00.124Z,102360.44
2022-09-18T14:04:51.159Z,102360.75
2022-09-18T14:07:56.337Z,102358.88
2022-09-18T14:10:31.710Z,102357.59
2022-09-18T14:13:08.899Z,102352.16
2022-09-18T14:15:38.651Z,102358.06
2022-09-18T14:18:14.548Z,102350.34
2022-09-18T14:20:48.088Z,102344.53
2022-09-18T14:23:53.569Z,102343.16
2022-09-18T14:26:58.962Z,102342.22
2022-09-18T14:29:34.610Z,102343.50
2022-09-18T14:32:04.380Z,102338.94
2022-09-18T14:34:39.430Z,102338.94
2022-09-18T14:37:28.577Z,102341.22
2022-09-18T14:39:58.758Z,102345.72
2022-09-18T14:42:33.495Z,102346.94
2022-09-18T14:45:19.456Z,102340.31
2022-09-18T14:47:50.111Z,102337.38
2022-09-18T14:50:33.939Z,102343.44
2022-09-18T14:53:05.037Z,102337.81
2022-09-18T14:55:37.813Z,102336.47
2022-09-18T14:58:09.859Z,102331.19
2022-09-18T15:00:39.738Z,102328.72
2022-09-18T15:03:19.185Z,102321.53
2022-09-18T15:05:49.481Z,102327.22
2022-09-18T15:08:23.482Z,102338.81
2022-09-18T15:10:54.696Z,102333.63
2022-09-18T15:13:23.712Z,102341.00
2022-09-18T15:15:59.667Z,102335.00
2022-09-18T15:18:30.914Z,102337.69
2022-09-18T15:21:01.955Z,102338.41
2022-09-18T15:23:32.271Z,102344.09
2022-09-18T15:26:03.756Z,102337.50
2022-09-18T15:28:34.683Z,102341.53
2022-09-18T15:31:05.498Z,102341.06
2022-09-18T15:33:37.183Z,102338.09
2022-09-18T15:36:06.707Z,102335.78
2022-09-18T15:38:40.417Z,102337.16
2022-09-18T15:41:24.444Z,102331.16
2022-09-18T15:43:52.818Z,102334.47
2022-09-18T15:46:28.916Z,102332.47
2022-09-18T15:49:01.082Z,102326.13
2022-09-18T15:51:30.912Z,102327.28
2022-09-18T15:54:09.913Z,102319.84
2022-09-18T15:56:40.763Z,102332.72
2022-09-18T15:59:19.223Z,102333.13
2022-09-18T16:01:49.145Z,102331.66
2022-09-18T16:04:25.804Z,102329.06
2022-09-18T16:07:00.519Z,102328.75
2022-09-18T16:09:41.908Z,102328.28
2022-09-18T16:12:35.851Z,102328.47
2022-09-18T16:15:20.943Z,102316.31
2022-09-18T16:17:57.941Z,102319.63
2022-09-18T16:20:40.711Z,102321.19
2022-09-18T16:23:22.307Z,102320.84
2022-09-18T16:26:02.427Z,102315.06
2022-09-18T16:28:32.948Z,102318.03
2022-09-18T16:31:01.396Z,102318.38
2022-09-18T16:33:31.999Z,102319.09
2022-09-18T16:36:06.708Z,102312.44
2022-09-18T16:38:35.318Z,102336.44
2022-09-18T16:41:03.538Z,102323.63
2022-09-18T16:43:32.017Z,102330.16
2022-09-18T16:46:00.333Z,102331.50
2022-09-18T16:48:29.494Z,102319.72
2022-09-18T16:50:57.617Z,102320.06
2022-09-18T16:53:27.189Z,102322.59
2022-09-18T16:55:58.711Z,102323.13
2022-09-18T16:58:29.723Z,102327.78
2022-09-18T17:00:58.895Z,102332.59
2022-09-18T17:03:28.332Z,102326.81
2022-09-18T17:05:56.529Z,102329.63
2022-09-18T17:08:24.717Z,102332.47
2022-09-18T17:10:54.321Z,102326.97
2022-09-18T17:13:22.892Z,102335.16
2022-09-18T17:15:51.218Z,102341.47
2022-09-18T17:18:19.401Z,102332.66
2022-09-18T17:20:47.818Z,102333.50
2022-09-18T17:23:16.208Z,102330.81
2022-09-18T17:25:44.667Z,102323.03
2022-09-18T17:28:20.393Z,102327.16
2022-09-18T17:30:48.757Z,102329.00
2022-09-18T17:33:20.352Z,102336.97
2022-09-18T17:35:49.103Z,102335.34
2022-09-18T17:38:17.510Z,102336.50
2022-09-18T17:40:57.314Z,102338.50
2022-09-18T17:43:26.827Z,102341.81
2022-09-18T17:45:57.013Z,102341.16
2022-09-18T17:48:26.390Z,102335.16
2022-09-18T17:50:59.112Z,102340.34
2022-09-18T17:53:28.100Z,102348.16
2022-09-18T17:56:00.053Z,102349.50
2022-09-18T17:58:31.226Z,102351.84
2022-09-18T18:01:00.534Z,102351.53
2022-09-18T18:03:29.525Z,102359.03
2022-09-18T18:06:03.094Z,102352.41
2022-09-18T18:08:31.611Z,102361.72
2022-09-18T18:11:05.970Z,102358.56
2022-09-18T18:13:37.342Z,102352.19
2022-09-18T18:16:07.401Z,102354.38
2022-09-18T18:18:37.170Z,102352.06
2022-09-18T18:21:07.452Z,102354.22
2022-09-18T18:23:38.560Z,102347.56
2022-09-18T18:26:09.085Z,102350.56
2022-09-18T18:28:40.170Z,102354.56
2022-09-18T18:31:12.444Z,102350.75
2022-09-18T18:33:42.728Z,102351.25
2022-09-18T18:36:13.385Z,102352.41
2022-09-18T18:38:41.970Z,102352.91
2022-09-18T18:41:10.843Z,102348.25
2022-09-18T18:43:41.890Z,102350.06
2022-09-18T18:46:12.966Z,102352.22
2022-09-18T18:48:42.634Z,102352.41
2022-09-18T18:51:12.906Z,102350.56
2022-09-18T18:53:42.026Z,102352.72
2022-09-18T18:56:12.784Z,102358.22
2022-09-18T18:58:44.135Z,102357.22
2022-09-18T19:01:15.469Z,102350.38
2022-09-18T19:03:44.257Z,102352.06
2022-09-18T19:06:13.263Z,102350.41
2022-09-18T19:08:42.318Z,102334.44
2022-09-18T19:11:10.829Z,102342.41
2022-09-18T19:13:41.435Z,102341.41
2022-09-18T19:16:11.892Z,102337.94
2022-09-18T19:18:40.337Z,102337.09
2022-09-18T19:21:08.900Z,102340.72
2022-09-18T19:23:37.263Z,102346.03
2022-09-18T19:26:05.617Z,102344.38
2022-09-18T19:28:33.764Z,102344.56
2022-09-18T19:31:04.428Z,102338.06
2022-09-18T19:33:34.664Z,102337.41
2022-09-18T19:36:06.661Z,102341.06
2022-09-18T19:38:37.127Z,102330.75
2022-09-18T19:41:11.154Z,102335.91
2022-09-18T19:43:39.661Z,102331.06
2022-09-18T19:46:13.511Z,102333.59
2022-09-18T19:48:44.283Z,102331.06
2022-09-18T19:51:14.434Z,102332.09
2022-09-18T19:53:42.649Z,102324.28
2022-09-18T19:56:22.846Z,102330.44
2022-09-18T19:58:59.834Z,102322.63
2022-09-18T20:01:28.121Z,102325.09
2022-09-18T20:03:58.944Z,102330.25
2022-09-18T20:06:27.242Z,102311.81
2022-09-18T20:08:56.502Z,102321.44
2022-09-18T20:11:24.667Z,102324.09
2022-09-18T20:13:53.812Z,102317.78
2022-09-18T20:16:22.782Z,102324.78
2022-09-18T20:18:51.664Z,102320.44
2022-09-18T20:21:21.523Z,102319.63
2022-09-18T20:23:49.967Z,102321.13
2022-09-18T20:26:20.455Z,102325.28
2022-09-18T20:28:48.488Z,102327.75
2022-09-18T20:31:17.640Z,102324.09
2022-09-18T20:33:46.197Z,102320.44
2022-09-18T20:36:14.417Z,102319.78
2022-09-18T20:38:44.274Z,102325.44
2022-09-18T20:41:15.409Z,102322.28
2022-09-18T20:43:45.052Z,102325.78
2022-09-18T20:46:17.386Z,102324.78
2022-09-18T20:48:53.159Z,102322.94
2022-09-18T20:51:22.597Z,102315.97
2022-09-18T20:53:53.933Z,102332.09
2022-09-18T20:56:23.199Z,102330.25
2022-09-18T20:58:52.248Z,102333.88
2022-09-18T21:01:22.495Z,102337.41
2022-09-18T21:03:56.794Z,102333.22
2022-09-18T21:06:26.839Z,102336.06
2022-09-18T21:08:57.062Z,102331.72
2022-09-18T21:11:28.090Z,102326.09
2022-09-18T21:13:58.049Z,102333.06
2022-09-18T21:16:27.807Z,102335.72
2022-09-18T21:18:57.907Z,102334.88
2022-09-18T21:21:27.611Z,102345.53
2022-09-18T21:23:58.758Z,102341.22
2022-09-18T21:26:30.691Z,102341.22
2022-09-18T21:29:00.894Z,102345.69
2022-09-18T21:31:30.333Z,102346.53
2022-09-18T21:34:00.346Z,102344.19
2022-09-18T21:36:28.729Z,102339.69
2022-09-18T21:38:58.241Z,102339.03
2022-09-18T21:41:27.128Z,102337.53
2022-09-18T21:43:57.566Z,102338.22
2022-09-18T21:46:25.741Z,102334.88
2022-09-18T21:48:54.764Z,102334.03
2022-09-18T21:51:23.365Z,102337.53
2022-09-18T21:53:51.543Z,102332.88
2022-09-18T21:56:22.111Z,102326.72
2022-09-18T21:58:50.370Z,102322.41
2022-09-18T22:01:22.024Z,102322.41
2022-09-18T22:03:55.654Z,102322.22
2022-09-18T22:06:26.188Z,102329.38
2022-09-18T22:08:57.898Z,102329.38
2022-09-18T22:11:29.899Z,102327.56
2022-09-18T22:14:00.159Z,102332.88
2022-09-18T22:16:29.579Z,102332.03
2022-09-18T22:18:58.076Z,102333.19
2022-09-18T22:21:28.415Z,102339.47
2022-09-18T22:23:58.979Z,102338.50
2022-09-18T22:26:28.964Z,102332.19
2022-09-18T22:28:58.355Z,102334.97
2022-09-18T22:31:27.725Z,102325.34
2022-09-18T22:33:57.796Z,102334.50
2022-09-18T22:36:27.060Z,102326.34
2022-09-18T22:38:55.480Z,102337.97
2022-09-18T22:41:23.595Z,102335.97
2022-09-18T22:43:57.120Z,102334.31
2022-09-18T22:46:26.962Z,102338.63
2022-09-18T22:48:55.658Z,102335.31
2022-09-18T22:51:27.330Z,102340.63
2022-09-18T22:53:57.119Z,102341.47
2022-09-18T22:56:26.629Z,102338.81
2022-09-18T22:58:57.372Z,102336.97
2022-09-18T23:01:27.856Z,102336.16
2022-09-18T23:03:58.051Z,102334.31
2022-09-18T23:06:27.563Z,102336.31
2022-09-18T23:08:57.959Z,102348.59
2022-09-18T23:11:27.803Z,102336.63
2022-09-18T23:13:58.969Z,102331.31
2022-09-18T23:16:29.603Z,102332.31
2022-09-18T23:18:59.419Z,102340.13
2022-09-18T23:21:32.000Z,102334.16
2022-09-18T23:24:04.905Z,102334.28
2022-09-18T23:26:37.330Z,102332.63
2022-09-18T23:29:09.421Z,102339.09
2022-09-18T23:31:40.389Z,102334.63
2022-09-18T23:34:12.077Z,102333.94
2022-09-18T23:36:42.191Z,102336.75
2022-09-18T23:39:14.411Z,102325.31
2022-09-18T23:41:43.136Z,102336.25
2022-09-18T23:44:14.824Z,102329.78
2022-09-18T23:46:43.999Z,102327.28
2022-09-18T23:49:13.465Z,102327.28
2022-09-18T23:51:43.298Z,102334.28
2022-09-18T23:54:16.721Z,102338.91
2022-09-18T23:56:45.614Z,102335.25
2022-09-18T23:59:19.651Z,102324.63
